Time,TemperatureF,DewpointF,PressureIn,WindDirection,WindDirectionDegrees,WindSpeedMPH,WindSpeedGustMPH,Humidity,HourlyPrecipIn,Conditions,Clouds,dailyrainin,SoftwareType,DateUTC
2017-12-15 00:01:00,47.0,44.2,29.99,WSW,242,0.0,0.0,90,0.00,BKN,,0.00,WeatherDisplay:10.37,2017-12-15 05:01:00,
2017-12-15 00:06:00,47.0,44.2,29.99,WSW,242,0.0,0.0,90,0.00,BKN,,0.00,WeatherDisplay:10.37,2017-12-15 05:06:00,
2017-12-15 00:11:00,47.2,44.4,29.99,WSW,242,0.0,0.0,90,0.00,BKN,,0.00,WeatherDisplay:10.37,2017-12-15 05:11:00,
2017-12-15 00:16:00,47.2,44.1,29.99,WSW,242,0.0,0.0,89,0.00,BKN,,0.00,WeatherDisplay:10.37,2017-12-15 05:16:00,
2017-12-15 00:21:00,47.3,44.5,29.99,WSW,242,0.0,0.0,90,0.00,BKN,,0.00,WeatherDisplay:10.37,2017-12-15 05:21:00,
2017-12-15 00:26:00,47.3,44.5,29.99,WSW,242,0.0,0.0,90,0.00,BKN,,0.00,WeatherDisplay:10.37,2017-12-15 05:26:00,
2017-12-15 00:31:00,47.2,44.1,29.98,WSW,242,0.0,0.0,89,0.00,BKN,,0.00,WeatherDisplay:10.37,2017-12-15 05:31:00,
2017-12-15 00:36:00,47.1,44.0,29.98,WSW,242,0.0,0.0,89,0.00,BKN,,0.00,WeatherDisplay:10.37,2017-12-15 05:36:00,
2017-12-15 00:42:00,46.9,43.8,29.98,WSW,242,0.0,0.0,89,0.00,BKN,,0.00,WeatherDisplay:10.37,2017-12-15 05:42:00,
2017-12-15 00:47:00,46.9,43.8,29.98,WSW,242,0.0,0.0,89,0.00,BKN,,0.00,WeatherDisplay:10.37,2017-12-15 05:47:00,
2017-12-15 00:52:00,46.9,43.8,29.98,WSW,242,0.0,0.0,89,0.00,BKN,,0.00,WeatherDisplay:10.37,2017-12-15 05:52:00,
2017-12-15 00:57:00,46.9,43.8,29.98,WSW,242,0.0,0.0,89,0.00,BKN,,0.00,WeatherDisplay:10.37,2017-12-15 05:57:00,
2017-12-15 01:02:00,47.0,43.9,29.98,WSW,242,0.0,0.0,89,0.00,BKN,,0.00,WeatherDisplay:10.37,2017-12-15 06:02:00,
2017-12-15 01:07:00,47.2,43.8,29.98,WSW,242,0.0,0.0,88,0.00,BKN,,0.00,WeatherDisplay:10.37,2017-12-15 06:07:00,
2017-12-15 01:12:00,47.3,43.9,29.99,WSW,242,0.0,0.0,88,0.00,BKN,,0.00,WeatherDisplay:10.37,2017-12-15 06:12:00,
2017-12-15 01:17:00,47.5,44.1,29.98,WSW,242,0.0,0.0,88,0.00,BKN,,0.00,WeatherDisplay:10.37,2017-12-15 06:17:00,
2017-12-15 01:22:00,47.7,44.3,29.98,WSW,242,0.0,0.0,88,0.00,BKN,,0.00,WeatherDisplay:10.37,2017-12-15 06:22:00,
2017-12-15 01:27:00,47.8,44.4,29.99,WSW,242,0.0,0.0,88,0.00,BKN,,0.00,WeatherDisplay:10.37,2017-12-15 06:27:00,
2017-12-15 01:33:00,47.8,44.1,29.99,WSW,242,0.0,0.0,87,0.00,BKN,,0.00,WeatherDisplay:10.37,2017-12-15 06:33:00,
2017-12-15 01:38:00,47.9,44.5,29.99,WSW,242,0.0,0.0,88,0.00,BKN,,0.00,WeatherDisplay:10.37,2017-12-15 06:38:00,
2017-12-15 01:43:00,47.9,44.2,29.98,WSW,242,0.0,0.0,87,0.00,BKN,,0.00,WeatherDisplay:10.37,2017-12-15 06:43:00,
2017-12-15 01:48:00,47.9,44.2,29.98,WSW,242,0.0,0.0,87,0.00,BKN,,0.00,WeatherDisplay:10.37,2017-12-15 06:48:00,
2017-12-15 01:53:00,47.9,44.2,29.99,WSW,242,0.0,0.0,87,0.00,BKN,,0.00,WeatherDisplay:10.37,2017-12-15 06:53:00,
2017-12-15 01:58:00,48.0,44.6,29.98,WSW,243,0.0,0.0,88,0.00,BKN,,0.00,WeatherDisplay:10.37,2017-12-15 06:58:00,
2017-12-15 02:03:00,48.1,44.4,29.98,WSW,242,0.0,0.0,87,0.00,BKN,,0.00,WeatherDisplay:10.37,2017-12-15 07:03:00,
2017-12-15 02:08:00,48.1,44.4,29.98,WSW,242,0.0,0.0,87,0.00,BKN,,0.00,WeatherDisplay:10.37,2017-12-15 07:08:00,
2017-12-15 02:13:00,48.2,44.5,29.98,WSW,242,0.0,0.0,87,0.00,BKN,,0.00,WeatherDisplay:10.37,2017-12-15 07:13:00,
2017-12-15 02:18:00,48.3,44.6,29.98,WSW,242,0.0,0.0,87,0.00,BKN,,0.00,WeatherDisplay:10.37,2017-12-15 07:18:00,
2017-12-15 02:24:00,48.3,44.6,29.99,WSW,242,0.0,0.0,87,0.00,BKN,,0.00,WeatherDisplay:10.37,2017-12-15 07:24:00,
2017-12-15 02:30:00,48.3,44.6,29.98,WSW,242,0.0,0.0,87,0.00,BKN,,0.00,WeatherDisplay:10.37,2017-12-15 07:30:00,
2017-12-15 02:35:00,48.4,44.7,29.99,WSW,242,0.0,0.0,87,0.00,BKN,,0.00,WeatherDisplay:10.37,2017-12-15 07:35:00,
2017-12-15 02:40:00,48.4,44.7,29.99,WSW,242,0.0,0.0,87,0.00,BKN,,0.00,WeatherDisplay:10.37,2017-12-15 07:40:00,
2017-12-15 02:45:00,48.4,44.7,29.99,WSW,242,0.0,0.0,87,0.00,BKN,,0.00,WeatherDisplay:10.37,2017-12-15 07:45:00,
2017-12-15 02:50:00,48.3,44.6,29.99,WSW,242,0.0,0.0,87,0.00,BKN,,0.00,WeatherDisplay:10.37,2017-12-15 07:50:00,
2017-12-15 02:55:00,48.3,44.6,29.99,WSW,242,0.0,0.0,87,0.00,BKN,,0.00,WeatherDisplay:10.37,2017-12-15 07:55:00,
2017-12-15 03:00:00,48.2,44.8,29.99,WSW,242,0.0,0.0,88,0.00,BKN,,0.00,WeatherDisplay:10.37,2017-12-15 08:00:00,
2017-12-15 03:05:00,48.1,44.7,29.99,WSW,242,0.0,0.0,88,0.00,OVC,,0.00,WeatherDisplay:10.37,2017-12-15 08:05:00,
2017-12-15 03:09:00,48.0,44.3,29.99,WSW,242,0.0,0.0,87,0.00,OVC,,0.00,WeatherDisplay:10.37,2017-12-15 08:09:00,
2017-12-15 03:14:00,47.9,44.2,29.99,WSW,242,0.0,0.0,87,0.00,OVC,,0.00,WeatherDisplay:10.37,2017-12-15 08:14:00,
2017-12-15 03:19:00,47.8,44.1,29.98,WSW,242,0.0,0.0,87,0.00,OVC,,0.00,WeatherDisplay:10.37,2017-12-15 08:19:00,
2017-12-15 03:24:00,47.7,44.3,29.98,WSW,242,0.0,0.0,88,0.00,OVC,,0.00,WeatherDisplay:10.37,2017-12-15 08:24:00,
2017-12-15 03:29:00,47.6,44.2,29.98,WSW,242,0.0,0.0,88,0.00,OVC,,0.00,WeatherDisplay:10.37,2017-12-15 08:29:00,
2017-12-15 03:34:00,47.4,44.0,29.98,WSW,242,0.0,0.0,88,0.00,OVC,,0.00,WeatherDisplay:10.37,2017-12-15 08:34:00,
2017-12-15 03:40:00,47.2,43.8,29.98,WSW,242,0.0,0.0,88,0.00,OVC,,0.00,WeatherDisplay:10.37,2017-12-15 08:40:00,
2017-12-15 03:45:00,47.0,43.6,29.98,WSW,242,0.0,0.0,88,0.00,OVC,,0.00,WeatherDisplay:10.37,2017-12-15 08:45:00,
2017-12-15 03:51:00,46.8,43.4,29.98,WSW,242,0.0,0.0,88,0.00,OVC,,0.00,WeatherDisplay:10.37,2017-12-15 08:51:00,
2017-12-15 03:57:00,46.7,43.3,29.98,WSW,242,0.0,0.0,88,0.00,OVC,,0.00,WeatherDisplay:10.37,2017-12-15 08:57:00,
2017-12-15 04:02:00,46.5,43.1,29.98,WSW,242,0.0,0.0,88,0.00,BKN,,0.00,WeatherDisplay:10.37,2017-12-15 09:02:00,
2017-12-15 04:07:00,46.5,43.1,29.98,WSW,242,0.0,0.0,88,0.00,BKN,,0.00,WeatherDisplay:10.37,2017-12-15 09:07:00,
2017-12-15 04:12:00,46.4,43.0,29.98,WSW,242,0.0,0.0,88,0.00,BKN,,0.00,WeatherDisplay:10.37,2017-12-15 09:12:00,
2017-12-15 04:17:00,46.4,43.0,29.98,WSW,242,0.0,0.0,88,0.00,BKN,,0.00,WeatherDisplay:10.37,2017-12-15 09:17:00,
2017-12-15 04:22:00,46.4,43.0,29.98,WSW,242,0.0,0.0,88,0.00,BKN,,0.00,WeatherDisplay:10.37,2017-12-15 09:22:00,
2017-12-15 04:27:00,46.3,43.2,29.99,WSW,242,0.0,0.0,89,0.00,BKN,,0.00,WeatherDisplay:10.37,2017-12-15 09:27:00,
2017-12-15 04:32:00,46.2,43.1,29.99,WSW,242,0.0,0.0,89,0.00,BKN,,0.00,WeatherDisplay:10.37,2017-12-15 09:32:00,
2017-12-15 04:38:00,45.9,42.8,29.98,WSW,242,0.0,0.0,89,0.00,BKN,,0.00,WeatherDisplay:10.37,2017-12-15 09:38:00,
2017-12-15 04:43:00,45.7,42.6,29.98,WSW,242,0.0,0.0,89,0.00,BKN,,0.00,WeatherDisplay:10.37,2017-12-15 09:43:00,
2017-12-15 04:48:00,45.5,42.4,29.98,WSW,242,0.0,0.0,89,0.00,BKN,,0.00,WeatherDisplay:10.37,2017-12-15 09:48:00,
2017-12-15 04:53:00,45.3,42.5,29.98,WSW,242,0.0,0.0,90,0.00,BKN,,0.00,WeatherDisplay:10.37,2017-12-15 09:53:00,
2017-12-15 04:58:00,45.1,42.1,29.98,WSW,242,0.0,0.0,89,0.00,BKN,,0.00,WeatherDisplay:10.37,2017-12-15 09:58:00,
2017-12-15 05:03:00,45.0,42.0,29.97,WSW,242,0.0,0.0,89,0.00,SCT,,0.00,WeatherDisplay:10.37,2017-12-15 10:03:00,
2017-12-15 05:08:00,44.8,41.8,29.97,WSW,242,0.0,0.0,89,0.00,SCT,,0.00,WeatherDisplay:10.37,2017-12-15 10:08:00,
2017-12-15 05:13:00,44.6,41.8,29.97,WSW,242,0.0,0.0,90,0.00,SCT,,0.00,WeatherDisplay:10.37,2017-12-15 10:13:00,
2017-12-15 05:19:00,44.5,41.7,29.98,WSW,242,0.0,0.0,90,0.00,SCT,,0.00,WeatherDisplay:10.37,2017-12-15 10:19:00,
2017-12-15 05:24:00,44.5,41.7,29.98,WSW,242,0.0,0.0,90,0.00,SCT,,0.00,WeatherDisplay:10.37,2017-12-15 10:24:00,
2017-12-15 05:29:00,44.4,41.7,29.97,WSW,242,0.0,0.0,90,0.00,SCT,,0.00,WeatherDisplay:10.37,2017-12-15 10:29:00,
2017-12-15 05:35:00,44.4,41.7,29.98,WSW,242,0.0,0.0,90,0.00,SCT,,0.00,WeatherDisplay:10.37,2017-12-15 10:35:00,
2017-12-15 05:40:00,44.3,41.6,29.98,WSW,242,0.0,0.0,90,0.00,SCT,,0.00,WeatherDisplay:10.37,2017-12-15 10:40:00,
2017-12-15 05:46:00,44.3,41.8,29.98,WSW,242,0.0,0.0,91,0.00,SCT,,0.00,WeatherDisplay:10.37,2017-12-15 10:46:00,
2017-12-15 05:51:00,44.3,41.6,29.98,WSW,242,0.0,0.0,90,0.00,SCT,,0.00,WeatherDisplay:10.37,2017-12-15 10:51:00,
2017-12-15 05:56:00,44.2,41.5,29.99,NNW,331,0.0,0.0,90,0.00,SCT,,0.00,WeatherDisplay:10.37,2017-12-15 10:56:00,
2017-12-15 06:01:00,44.1,41.4,29.99,WSW,242,0.0,0.0,90,0.00,SCT,,0.00,WeatherDisplay:10.37,2017-12-15 11:01:00,
2017-12-15 06:06:00,44.1,41.4,29.99,WSW,242,0.0,0.0,90,0.00,SCT,,0.00,WeatherDisplay:10.37,2017-12-15 11:06:00,
2017-12-15 06:11:00,43.9,41.2,29.99,WSW,243,0.0,0.0,90,0.00,SCT,,0.00,WeatherDisplay:10.37,2017-12-15 11:11:00,
2017-12-15 06:16:00,43.8,41.1,29.99,WSW,242,0.0,0.0,90,0.00,SCT,,0.00,WeatherDisplay:10.37,2017-12-15 11:16:00,
2017-12-15 06:22:00,43.6,40.9,29.98,WSW,242,0.0,0.0,90,0.00,SCT,,0.00,WeatherDisplay:10.37,2017-12-15 11:22:00,
2017-12-15 06:27:00,43.4,40.9,29.98,WSW,242,0.0,0.0,91,0.00,SCT,,0.00,WeatherDisplay:10.37,2017-12-15 11:27:00,
2017-12-15 06:32:00,43.3,40.8,29.98,WSW,242,0.0,0.0,91,0.00,SCT,,0.00,WeatherDisplay:10.37,2017-12-15 11:32:00,
2017-12-15 06:38:00,43.3,40.8,29.99,WSW,243,0.0,0.0,91,0.00,SCT,,0.00,WeatherDisplay:10.37,2017-12-15 11:38:00,
2017-12-15 06:43:00,43.2,40.8,29.99,WSW,242,0.0,0.0,91,0.00,SCT,,0.00,WeatherDisplay:10.37,2017-12-15 11:43:00,
2017-12-15 06:48:00,43.1,40.9,29.99,WSW,242,0.0,0.0,92,0.00,SCT,,0.00,WeatherDisplay:10.37,2017-12-15 11:48:00,
2017-12-15 06:54:00,43.1,40.9,29.99,WSW,242,0.0,0.0,92,0.00,SCT,,0.00,WeatherDisplay:10.37,2017-12-15 11:54:00,
2017-12-15 06:59:00,43.2,41.0,29.99,WSW,242,0.0,0.0,92,0.00,SCT,,0.00,WeatherDisplay:10.37,2017-12-15 11:59:00,
2017-12-15 07:05:00,43.2,41.0,29.99,WSW,242,0.0,0.0,92,0.00,BKN,,0.00,WeatherDisplay:10.37,2017-12-15 12:05:00,
2017-12-15 07:10:00,43.2,41.0,29.98,WSW,242,0.0,0.0,92,0.00,BKN,,0.00,WeatherDisplay:10.37,2017-12-15 12:10:00,
2017-12-15 07:15:00,43.3,41.1,29.99,WSW,242,0.0,0.0,92,0.00,BKN,,0.00,WeatherDisplay:10.37,2017-12-15 12:15:00,
2017-12-15 07:20:00,43.3,41.1,29.99,WSW,243,0.0,0.0,92,0.00,BKN,,0.00,WeatherDisplay:10.37,2017-12-15 12:20:00,
2017-12-15 07:25:00,43.4,41.2,29.99,WSW,242,0.0,0.0,92,0.00,BKN,,0.00,WeatherDisplay:10.37,2017-12-15 12:25:00,
2017-12-15 07:30:00,43.4,41.2,29.99,WSW,242,0.0,0.0,92,0.00,BKN,,0.00,WeatherDisplay:10.37,2017-12-15 12:30:00,
2017-12-15 07:35:00,43.5,41.3,29.99,WSW,242,0.0,0.0,92,0.00,BKN,,0.00,WeatherDisplay:10.37,2017-12-15 12:35:00,
2017-12-15 07:40:00,43.6,41.4,30.00,WSW,243,0.0,0.0,92,0.00,BKN,,0.00,WeatherDisplay:10.37,2017-12-15 12:40:00,
2017-12-15 07:45:00,43.6,41.4,29.99,WSW,242,0.0,0.0,92,0.00,BKN,,0.00,WeatherDisplay:10.37,2017-12-15 12:45:00,
2017-12-15 07:50:00,43.5,41.3,29.99,West,269,0.0,0.0,92,0.00,BKN,,0.00,WeatherDisplay:10.37,2017-12-15 12:50:00,
2017-12-15 07:55:00,43.6,41.4,29.99,West,269,0.0,0.0,92,0.00,BKN,,0.00,WeatherDisplay:10.37,2017-12-15 12:55:00,
2017-12-15 08:01:00,43.6,41.4,29.99,NNW,331,0.0,0.0,92,0.00,SCT,,0.00,WeatherDisplay:10.37,2017-12-15 13:01:00,
2017-12-15 08:06:00,43.7,41.5,29.99,West,269,0.0,0.0,92,0.00,SCT,,0.00,WeatherDisplay:10.37,2017-12-15 13:06:00,
2017-12-15 08:11:00,43.8,41.6,29.99,West,269,0.0,0.0,92,0.00,SCT,,0.00,WeatherDisplay:10.37,2017-12-15 13:11:00,
2017-12-15 08:16:00,44.3,42.1,29.99,West,269,0.0,0.0,92,0.00,SCT,,0.00,WeatherDisplay:10.37,2017-12-15 13:16:00,
2017-12-15 08:21:00,45.2,43.0,30.00,West,269,0.0,0.0,92,0.00,SCT,,0.00,WeatherDisplay:10.37,2017-12-15 13:21:00,
2017-12-15 08:26:00,45.9,43.4,29.99,West,269,0.0,0.0,91,0.00,SCT,,0.00,WeatherDisplay:10.37,2017-12-15 13:26:00,
2017-12-15 08:31:00,47.2,44.4,29.99,West,269,0.0,0.0,90,0.00,SCT,,0.00,WeatherDisplay:10.37,2017-12-15 13:31:00,
2017-12-15 08:36:00,49.0,45.6,30.00,West,269,0.0,0.0,88,0.00,SCT,,0.00,WeatherDisplay:10.37,2017-12-15 13:36:00,
2017-12-15 08:41:00,50.3,45.6,29.99,West,269,0.0,0.0,84,0.00,SCT,,0.00,WeatherDisplay:10.37,2017-12-15 13:41:00,
2017-12-15 08:47:00,51.0,45.4,30.00,West,269,0.0,0.0,81,0.00,SCT,,0.00,WeatherDisplay:10.37,2017-12-15 13:47:00,
2017-12-15 08:53:00,51.6,45.6,30.00,West,269,0.0,0.0,80,0.00,SCT,,0.00,WeatherDisplay:10.37,2017-12-15 13:53:00,
2017-12-15 08:58:00,51.8,45.8,30.00,West,269,0.0,0.0,80,0.00,SCT,,0.00,WeatherDisplay:10.37,2017-12-15 13:58:00,
2017-12-15 09:04:00,52.1,45.4,30.00,West,269,0.0,0.0,78,0.00,BKN,,0.00,WeatherDisplay:10.37,2017-12-15 14:04:00,
2017-12-15 09:09:00,52.3,45.6,30.00,West,269,0.0,0.0,78,0.00,BKN,,0.00,WeatherDisplay:10.37,2017-12-15 14:09:00,
2017-12-15 09:14:00,52.6,45.9,30.00,West,269,0.0,0.0,78,0.00,BKN,,0.00,WeatherDisplay:10.37,2017-12-15 14:14:00,
2017-12-15 09:21:00,52.9,45.9,30.00,South,171,0.0,0.0,77,0.00,BKN,,0.00,WeatherDisplay:10.37,2017-12-15 14:21:00,
2017-12-15 09:26:00,53.1,45.7,30.00,South,170,0.0,0.0,76,0.00,BKN,,0.00,WeatherDisplay:10.37,2017-12-15 14:26:00,
2017-12-15 09:31:00,53.3,45.9,30.01,South,170,0.0,0.0,76,0.00,BKN,,0.00,WeatherDisplay:10.37,2017-12-15 14:31:00,
2017-12-15 09:36:00,53.6,45.9,30.01,South,171,0.0,0.0,75,0.00,BKN,,0.00,WeatherDisplay:10.37,2017-12-15 14:36:00,
2017-12-15 09:41:00,53.9,45.4,30.01,South,170,0.0,0.0,73,0.00,BKN,,0.00,WeatherDisplay:10.37,2017-12-15 14:41:00,
2017-12-15 09:47:00,54.3,45.8,30.01,South,170,0.0,0.0,73,0.00,BKN,,0.00,WeatherDisplay:10.37,2017-12-15 14:47:00,
2017-12-15 09:52:00,54.5,44.9,30.01,South,171,0.0,0.0,70,0.00,BKN,,0.00,WeatherDisplay:10.37,2017-12-15 14:52:00,
2017-12-15 09:57:00,54.8,45.2,30.01,South,171,0.0,0.0,70,0.00,BKN,,0.00,WeatherDisplay:10.37,2017-12-15 14:57:00,
2017-12-15 10:02:00,55.4,45.4,30.02,South,171,0.0,0.0,69,0.00,BKN,,0.00,WeatherDisplay:10.37,2017-12-15 15:02:00,
2017-12-15 10:07:00,56.5,45.3,30.02,South,176,0.0,0.0,66,0.00,BKN,,0.00,WeatherDisplay:10.37,2017-12-15 15:07:00,
2017-12-15 10:12:00,57.1,45.4,30.01,SW,225,0.0,0.0,65,0.00,BKN,,0.00,WeatherDisplay:10.37,2017-12-15 15:12:00,
2017-12-15 10:17:00,57.8,45.3,30.01,SW,225,0.0,0.0,63,0.00,BKN,,0.00,WeatherDisplay:10.37,2017-12-15 15:17:00,
2017-12-15 10:22:00,58.1,44.7,30.01,SW,225,0.0,0.0,61,0.00,BKN,,0.00,WeatherDisplay:10.37,2017-12-15 15:22:00,
2017-12-15 10:27:00,58.2,45.2,30.02,SW,225,0.0,0.0,62,0.00,BKN,,0.00,WeatherDisplay:10.37,2017-12-15 15:27:00,
2017-12-15 10:33:00,58.9,45.5,30.02,SW,225,0.0,0.0,61,0.00,BKN,,0.00,WeatherDisplay:10.37,2017-12-15 15:33:00,
2017-12-15 10:39:00,60.0,44.7,30.00,SW,225,0.0,0.0,57,0.00,BKN,,0.00,WeatherDisplay:10.37,2017-12-15 15:39:00,
2017-12-15 10:44:00,60.7,44.4,30.01,SW,225,0.0,0.0,55,0.00,BKN,,0.00,WeatherDisplay:10.37,2017-12-15 15:44:00,
2017-12-15 10:49:00,60.4,43.7,30.01,WSW,238,0.0,0.0,54,0.00,BKN,,0.00,WeatherDisplay:10.37,2017-12-15 15:49:00,
2017-12-15 10:54:00,60.2,44.9,30.00,WSW,238,0.0,0.0,57,0.00,BKN,,0.00,WeatherDisplay:10.37,2017-12-15 15:54:00,
2017-12-15 10:59:00,60.1,44.3,30.01,WSW,238,0.0,0.0,56,0.00,BKN,,0.00,WeatherDisplay:10.37,2017-12-15 15:59:00,
2017-12-15 11:04:00,60.5,44.2,30.01,SW,234,0.0,0.0,55,0.00,BKN,,0.00,WeatherDisplay:10.37,2017-12-15 16:04:00,
2017-12-15 11:09:00,60.9,44.6,30.00,SW,234,0.0,0.0,55,0.00,BKN,,0.00,WeatherDisplay:10.37,2017-12-15 16:09:00,
2017-12-15 11:14:00,61.8,45.0,30.00,SW,234,0.0,0.0,54,0.00,BKN,,0.00,WeatherDisplay:10.37,2017-12-15 16:14:00,
2017-12-15 11:19:00,62.3,44.4,30.00,SW,234,0.0,0.0,52,0.00,BKN,,0.00,WeatherDisplay:10.37,2017-12-15 16:19:00,
2017-12-15 11:25:00,62.9,45.0,29.99,WSW,247,2.0,2.0,52,0.00,BKN,,0.00,WeatherDisplay:10.37,2017-12-15 16:25:00,
2017-12-15 11:30:00,62.9,44.0,30.00,SSW,199,3.5,3.5,50,0.00,BKN,,0.00,WeatherDisplay:10.37,2017-12-15 16:30:00,
2017-12-15 11:37:00,63.1,44.2,29.99,WSW,246,0.0,0.0,50,0.00,BKN,,0.00,WeatherDisplay:10.37,2017-12-15 16:37:00,
2017-12-15 11:42:00,63.7,44.7,29.98,SSW,209,3.5,3.5,50,0.00,BKN,,0.00,WeatherDisplay:10.37,2017-12-15 16:42:00,
2017-12-15 11:48:00,64.3,43.6,29.98,WSW,257,4.0,4.0,47,0.00,BKN,,0.00,WeatherDisplay:10.37,2017-12-15 16:48:00,
2017-12-15 11:53:00,64.2,43.5,29.97,WSW,244,2.3,2.3,47,0.00,BKN,,0.00,WeatherDisplay:10.37,2017-12-15 16:53:00,
2017-12-15 11:58:00,64.4,44.3,29.96,SW,219,2.3,0.0,48,0.00,BKN,,0.00,WeatherDisplay:10.37,2017-12-15 16:58:00,
2017-12-15 12:03:00,64.4,44.3,29.96,NNW,331,2.3,0.0,48,0.00,BKN,,0.00,WeatherDisplay:10.37,2017-12-15 17:03:00,
2017-12-15 12:09:00,63.8,43.2,29.96,SSW,209,2.3,2.3,47,0.00,BKN,,0.00,WeatherDisplay:10.37,2017-12-15 17:09:00,
2017-12-15 12:14:00,63.6,44.1,29.95,SW,221,0.0,0.0,49,0.00,BKN,,0.00,WeatherDisplay:10.37,2017-12-15 17:14:00,
2017-12-15 12:19:00,63.5,44.0,29.96,SSW,211,3.5,3.5,49,0.00,BKN,,0.00,WeatherDisplay:10.37,2017-12-15 17:19:00,
2017-12-15 12:25:00,64.0,43.9,29.96,SSW,213,3.5,0.0,48,0.00,BKN,,0.00,WeatherDisplay:10.37,2017-12-15 17:25:00,
2017-12-15 12:30:00,64.3,44.2,29.94,SSW,206,2.3,2.3,48,0.00,BKN,,0.00,WeatherDisplay:10.37,2017-12-15 17:30:00,
2017-12-15 12:35:00,64.4,43.2,29.95,SW,220,7.0,7.0,46,0.00,BKN,,0.00,WeatherDisplay:10.37,2017-12-15 17:35:00,
2017-12-15 12:40:00,63.9,43.3,29.95,SSW,211,4.0,4.0,47,0.00,BKN,,0.00,WeatherDisplay:10.37,2017-12-15 17:40:00,
2017-12-15 12:45:00,63.3,42.2,29.95,WSW,245,3.5,3.5,46,0.00,BKN,,0.00,WeatherDisplay:10.37,2017-12-15 17:45:00,
2017-12-15 12:50:00,63.3,43.3,29.95,SSW,207,3.0,3.0,48,0.00,BKN,,0.00,WeatherDisplay:10.37,2017-12-15 17:50:00,
2017-12-15 12:56:00,63.8,43.7,29.95,WSW,246,2.3,2.3,48,0.00,BKN,,0.00,WeatherDisplay:10.37,2017-12-15 17:56:00,
2017-12-15 13:01:00,64.4,43.7,29.95,WSW,237,2.3,2.3,47,0.00,BKN,,0.00,WeatherDisplay:10.37,2017-12-15 18:01:00,
2017-12-15 13:06:00,64.4,43.7,29.95,SSW,211,2.0,2.0,47,0.00,BKN,,0.00,WeatherDisplay:10.37,2017-12-15 18:06:00,
2017-12-15 13:11:00,64.0,41.0,29.94,SW,221,4.0,4.0,43,0.00,BKN,,0.00,WeatherDisplay:10.37,2017-12-15 18:11:00,
2017-12-15 13:16:00,63.1,41.4,29.95,SW,221,8.1,8.1,45,0.00,BKN,,0.00,WeatherDisplay:10.37,2017-12-15 18:16:00,
2017-12-15 13:21:00,62.7,41.6,29.94,SSW,213,4.0,4.0,46,0.00,BKN,,0.00,WeatherDisplay:10.37,2017-12-15 18:21:00,
2017-12-15 13:26:00,62.2,41.7,29.94,SSW,205,1.2,1.2,47,0.00,BKN,,0.00,WeatherDisplay:10.37,2017-12-15 18:26:00,
2017-12-15 13:31:00,62.0,42.6,29.94,SW,215,3.5,3.5,49,0.00,BKN,,0.00,WeatherDisplay:10.37,2017-12-15 18:31:00,
2017-12-15 13:36:00,61.7,42.9,29.94,WSW,248,1.2,0.0,50,0.00,BKN,,0.00,WeatherDisplay:10.37,2017-12-15 18:36:00,
2017-12-15 13:41:00,61.5,43.2,29.94,SW,230,3.5,3.5,51,0.00,BKN,,0.00,WeatherDisplay:10.37,2017-12-15 18:41:00,
2017-12-15 13:46:00,61.4,43.6,29.94,SW,230,0.0,0.0,52,0.00,BKN,,0.00,WeatherDisplay:10.37,2017-12-15 18:46:00,
2017-12-15 13:52:00,61.3,43.5,29.94,SW,214,2.0,2.0,52,0.00,BKN,,0.00,WeatherDisplay:10.37,2017-12-15 18:52:00,
2017-12-15 13:57:00,61.3,43.5,29.93,SSW,213,0.0,0.0,52,0.00,BKN,,0.00,WeatherDisplay:10.37,2017-12-15 18:57:00,
2017-12-15 14:02:00,61.3,43.5,29.94,SSW,213,2.3,2.3,52,0.00,BKN,,0.00,WeatherDisplay:10.37,2017-12-15 19:02:00,
2017-12-15 14:07:00,61.2,43.9,29.94,WSW,244,0.0,0.0,53,0.00,BKN,,0.00,WeatherDisplay:10.37,2017-12-15 19:07:00,
2017-12-15 14:12:00,61.2,43.9,29.94,WSW,240,1.2,0.0,53,0.00,BKN,,0.00,WeatherDisplay:10.37,2017-12-15 19:12:00,
2017-12-15 14:17:00,61.1,43.8,29.95,SW,236,2.3,2.3,53,0.00,BKN,,0.00,WeatherDisplay:10.37,2017-12-15 19:17:00,
2017-12-15 14:22:00,60.7,43.5,29.95,WSW,247,2.3,2.3,53,0.00,BKN,,0.00,WeatherDisplay:10.37,2017-12-15 19:22:00,
2017-12-15 14:27:00,60.5,43.8,29.95,WSW,238,3.0,3.0,54,0.00,BKN,,0.00,WeatherDisplay:10.37,2017-12-15 19:27:00,
2017-12-15 14:32:00,60.3,43.6,29.94,SSW,203,1.2,0.0,54,0.00,BKN,,0.00,WeatherDisplay:10.37,2017-12-15 19:32:00,
2017-12-15 14:37:00,60.3,43.6,29.94,SSW,203,0.0,0.0,54,0.00,BKN,,0.00,WeatherDisplay:10.37,2017-12-15 19:37:00,
2017-12-15 14:43:00,60.1,43.4,29.94,SW,235,4.0,4.0,54,0.00,BKN,,0.00,WeatherDisplay:10.37,2017-12-15 19:43:00,
2017-12-15 14:48:00,59.9,43.7,29.95,WSW,242,1.2,0.0,55,0.00,BKN,,0.00,WeatherDisplay:10.37,2017-12-15 19:48:00,
2017-12-15 14:53:00,59.6,43.4,29.95,SW,215,2.0,2.0,55,0.00,BKN,,0.00,WeatherDisplay:10.37,2017-12-15 19:53:00,
2017-12-15 14:58:00,59.5,43.8,29.95,SW,222,0.0,0.0,56,0.00,BKN,,0.00,WeatherDisplay:10.37,2017-12-15 19:58:00,
2017-12-15 15:03:00,59.3,44.1,29.95,SW,219,0.0,0.0,57,0.00,BKN,,0.00,WeatherDisplay:10.37,2017-12-15 20:03:00,
2017-12-15 15:08:00,59.2,44.4,29.95,WSW,246,0.0,0.0,58,0.00,BKN,,0.00,WeatherDisplay:10.37,2017-12-15 20:08:00,
2017-12-15 15:13:00,59.1,44.3,29.96,SW,232,1.2,0.0,58,0.00,BKN,,0.00,WeatherDisplay:10.37,2017-12-15 20:13:00,
2017-12-15 15:18:00,59.0,44.7,29.97,SW,222,0.0,0.0,59,0.00,BKN,,0.00,WeatherDisplay:10.37,2017-12-15 20:18:00,
2017-12-15 15:23:00,58.9,44.6,29.97,SW,217,0.0,0.0,59,0.00,BKN,,0.00,WeatherDisplay:10.37,2017-12-15 20:23:00,
2017-12-15 15:29:00,58.8,44.9,29.96,WSW,238,0.0,0.0,60,0.00,BKN,,0.00,WeatherDisplay:10.37,2017-12-15 20:29:00,
2017-12-15 15:34:00,58.7,44.8,29.97,SW,220,2.3,2.3,60,0.00,BKN,,0.00,WeatherDisplay:10.37,2017-12-15 20:34:00,
2017-12-15 15:39:00,58.7,44.8,29.97,SW,235,0.0,0.0,60,0.00,BKN,,0.00,WeatherDisplay:10.37,2017-12-15 20:39:00,
2017-12-15 15:44:00,58.7,45.3,29.97,WSW,237,0.0,0.0,61,0.00,BKN,,0.00,WeatherDisplay:10.37,2017-12-15 20:44:00,
2017-12-15 15:49:00,58.6,45.2,29.97,SW,217,0.0,0.0,61,0.00,BKN,,0.00,WeatherDisplay:10.37,2017-12-15 20:49:00,
2017-12-15 15:55:00,58.6,45.6,29.97,SW,217,0.0,0.0,62,0.00,BKN,,0.00,WeatherDisplay:10.37,2017-12-15 20:55:00,
2017-12-15 16:00:00,58.5,45.5,29.97,SW,217,0.0,0.0,62,0.00,BKN,,0.00,WeatherDisplay:10.37,2017-12-15 21:00:00,
2017-12-15 16:05:00,58.5,45.5,29.97,SW,217,0.0,0.0,62,0.00,OVC,,0.00,WeatherDisplay:10.37,2017-12-15 21:05:00,
2017-12-15 16:10:00,58.5,45.9,29.97,SW,216,0.0,0.0,63,0.00,OVC,,0.00,WeatherDisplay:10.37,2017-12-15 21:10:00,
2017-12-15 16:15:00,58.5,45.9,29.97,SW,216,0.0,0.0,63,0.00,OVC,,0.00,WeatherDisplay:10.37,2017-12-15 21:15:00,
2017-12-15 16:20:00,58.4,45.8,29.97,SW,217,0.0,0.0,63,0.00,OVC,,0.00,WeatherDisplay:10.37,2017-12-15 21:20:00,
2017-12-15 16:25:00,58.3,45.8,29.98,SW,217,0.0,0.0,63,0.00,OVC,,0.00,WeatherDisplay:10.37,2017-12-15 21:25:00,
2017-12-15 16:30:00,58.2,45.7,29.98,SW,217,0.0,0.0,63,0.00,OVC,,0.00,WeatherDisplay:10.37,2017-12-15 21:30:00,
2017-12-15 16:35:00,58.1,45.6,29.98,SW,215,0.0,0.0,63,0.00,OVC,,0.00,WeatherDisplay:10.37,2017-12-15 21:35:00,
2017-12-15 16:41:00,57.9,45.4,29.98,SW,217,0.0,0.0,63,0.00,OVC,,0.00,WeatherDisplay:10.37,2017-12-15 21:41:00,
2017-12-15 16:46:00,57.8,45.3,29.98,SW,219,0.0,0.0,63,0.00,OVC,,0.00,WeatherDisplay:10.37,2017-12-15 21:46:00,
2017-12-15 16:52:00,57.7,45.2,29.98,SW,219,0.0,0.0,63,0.00,OVC,,0.00,WeatherDisplay:10.37,2017-12-15 21:52:00,
2017-12-15 16:57:00,57.6,44.7,29.98,SW,215,0.0,0.0,62,0.00,OVC,,0.00,WeatherDisplay:10.37,2017-12-15 21:57:00,
2017-12-15 17:02:00,57.5,44.6,29.97,SW,215,0.0,0.0,62,0.00,OVC,,0.00,WeatherDisplay:10.37,2017-12-15 22:02:00,
2017-12-15 17:07:00,57.3,44.4,29.97,SW,215,1.2,1.2,62,0.00,OVC,,0.00,WeatherDisplay:10.37,2017-12-15 22:07:00,
2017-12-15 17:12:00,57.2,44.3,29.97,SW,215,0.0,0.0,62,0.00,OVC,,0.00,WeatherDisplay:10.37,2017-12-15 22:12:00,
2017-12-15 17:17:00,57.2,44.7,29.97,SSW,208,0.0,0.0,63,0.00,OVC,,0.00,WeatherDisplay:10.37,2017-12-15 22:17:00,
2017-12-15 17:22:00,57.0,44.5,29.97,SSW,208,0.0,0.0,63,0.00,OVC,,0.00,WeatherDisplay:10.37,2017-12-15 22:22:00,
2017-12-15 17:27:00,56.9,44.4,29.96,SSW,207,0.0,0.0,63,0.00,OVC,,0.00,WeatherDisplay:10.37,2017-12-15 22:27:00,
2017-12-15 17:32:00,56.7,44.2,29.97,SSW,208,0.0,0.0,63,0.00,OVC,,0.00,WeatherDisplay:10.37,2017-12-15 22:32:00,
2017-12-15 17:37:00,56.6,44.6,29.97,SSW,207,0.0,0.0,64,0.00,OVC,,0.00,WeatherDisplay:10.37,2017-12-15 22:37:00,
2017-12-15 17:43:00,56.5,44.5,29.98,SSW,208,0.0,0.0,64,0.00,OVC,,0.00,WeatherDisplay:10.37,2017-12-15 22:43:00,
2017-12-15 17:48:00,56.4,44.8,29.99,SSW,208,0.0,0.0,65,0.00,OVC,,0.00,WeatherDisplay:10.37,2017-12-15 22:48:00,
2017-12-15 17:53:00,56.3,44.7,29.99,SSW,208,0.0,0.0,65,0.00,OVC,,0.00,WeatherDisplay:10.37,2017-12-15 22:53:00,
2017-12-15 17:58:00,56.3,44.7,29.99,SSW,207,0.0,0.0,65,0.00,OVC,,0.00,WeatherDisplay:10.37,2017-12-15 22:58:00,
2017-12-15 17:59:00,56.2,44.6,29.99,SSW,207,0.0,0.0,65,0.00,OVC,,0.00,WeatherDisplay:10.37,2017-12-15 22:59:00,
2017-12-15 18:04:00,56.1,44.9,29.99,SSW,208,0.0,0.0,66,0.00,OVC,,0.00,WeatherDisplay:10.37,2017-12-15 23:04:00,
2017-12-15 18:09:00,56.0,45.2,29.99,SSW,207,1.2,1.2,67,0.00,OVC,,0.00,WeatherDisplay:10.37,2017-12-15 23:09:00,
2017-12-15 18:15:00,55.9,45.1,29.99,SSW,208,0.0,0.0,67,0.00,OVC,,0.00,WeatherDisplay:10.37,2017-12-15 23:15:00,
2017-12-15 18:20:00,55.8,45.0,29.99,SSW,208,0.0,0.0,67,0.00,OVC,,0.00,WeatherDisplay:10.37,2017-12-15 23:20:00,
2017-12-15 18:25:00,55.7,44.9,30.00,SSW,207,0.0,0.0,67,0.00,OVC,,0.00,WeatherDisplay:10.37,2017-12-15 23:25:00,
2017-12-15 18:30:00,55.7,44.9,30.00,SSW,208,0.0,0.0,67,0.00,OVC,,0.00,WeatherDisplay:10.37,2017-12-15 23:30:00,
2017-12-15 18:35:00,55.7,44.9,30.01,SW,221,0.0,0.0,67,0.00,OVC,,0.00,WeatherDisplay:10.37,2017-12-15 23:35:00,
2017-12-15 18:40:00,55.6,44.8,30.00,SW,225,0.0,0.0,67,0.00,OVC,,0.00,WeatherDisplay:10.37,2017-12-15 23:40:00,
2017-12-15 18:45:00,55.6,44.8,30.00,SSW,211,0.0,0.0,67,0.00,OVC,,0.00,WeatherDisplay:10.37,2017-12-15 23:45:00,
2017-12-15 18:46:00,55.6,45.2,30.00,SSW,211,0.0,0.0,68,0.00,OVC,,0.00,WeatherDisplay:10.37,2017-12-15 23:46:00,
2017-12-15 18:51:00,55.5,44.3,30.00,SW,230,1.2,0.0,66,0.00,OVC,,0.00,WeatherDisplay:10.37,2017-12-15 23:51:00,
2017-12-15 18:52:00,55.5,44.3,30.00,SW,230,0.0,0.0,66,0.00,OVC,,0.00,WeatherDisplay:10.37,2017-12-15 23:52:00,
2017-12-15 18:57:00,55.5,44.3,30.00,SW,230,1.2,0.0,66,0.00,OVC,,0.00,WeatherDisplay:10.37,2017-12-15 23:57:00,
2017-12-15 19:03:00,55.6,44.4,30.00,WSW,247,0.0,0.0,66,0.00,OVC,,0.00,WeatherDisplay:10.37,2017-12-16 00:03:00,
2017-12-15 19:08:00,55.5,44.7,30.00,WSW,248,0.0,0.0,67,0.00,OVC,,0.00,WeatherDisplay:10.37,2017-12-16 00:08:00,
2017-12-15 19:13:00,55.4,45.0,30.02,WSW,247,0.0,0.0,68,0.00,OVC,,0.00,WeatherDisplay:10.37,2017-12-16 00:13:00,
2017-12-15 19:18:00,55.3,44.9,30.02,WSW,248,0.0,0.0,68,0.00,OVC,,0.00,WeatherDisplay:10.37,2017-12-16 00:18:00,
2017-12-15 19:23:00,55.3,44.9,30.02,WSW,247,0.0,0.0,68,0.00,OVC,,0.00,WeatherDisplay:10.37,2017-12-16 00:23:00,
2017-12-15 19:27:00,55.2,45.2,30.02,WSW,248,0.0,0.0,69,0.00,OVC,,0.00,WeatherDisplay:10.37,2017-12-16 00:27:00,
2017-12-15 19:32:00,55.1,45.1,30.02,WSW,248,0.0,0.0,69,0.00,OVC,,0.00,WeatherDisplay:10.37,2017-12-16 00:32:00,
2017-12-15 19:37:00,55.0,45.4,30.02,WSW,246,0.0,0.0,70,0.00,OVC,,0.00,WeatherDisplay:10.37,2017-12-16 00:37:00,
2017-12-15 19:42:00,55.0,45.0,30.03,SW,214,2.3,2.3,69,0.00,OVC,,0.00,WeatherDisplay:10.37,2017-12-16 00:42:00,
2017-12-15 19:48:00,54.9,44.9,30.03,SSW,207,3.0,3.0,69,0.00,OVC,,0.00,WeatherDisplay:10.37,2017-12-16 00:48:00,
2017-12-15 19:52:00,54.9,44.5,30.03,WSW,248,2.3,2.3,68,0.00,OVC,,0.00,WeatherDisplay:10.37,2017-12-16 00:52:00,
2017-12-15 19:57:00,55.0,44.2,30.03,WSW,244,2.3,2.3,67,0.00,OVC,,0.00,WeatherDisplay:10.37,2017-12-16 00:57:00,
2017-12-15 20:02:00,55.0,43.4,30.03,SSW,198,3.5,3.5,65,0.00,BKN,,0.00,WeatherDisplay:10.37,2017-12-16 01:02:00,
2017-12-15 20:07:00,55.0,43.4,30.04,WSW,245,1.0,1.0,65,0.00,BKN,,0.00,WeatherDisplay:10.37,2017-12-16 01:07:00,
2017-12-15 20:12:00,55.0,43.0,30.05,WSW,237,1.0,1.0,64,0.00,BKN,,0.00,WeatherDisplay:10.37,2017-12-16 01:12:00,
2017-12-15 20:17:00,55.0,42.2,30.05,WSW,250,3.5,3.5,62,0.00,BKN,,0.00,WeatherDisplay:10.37,2017-12-16 01:17:00,
2017-12-15 20:22:00,55.0,42.2,30.05,WSW,250,2.3,2.3,62,0.00,BKN,,0.00,WeatherDisplay:10.37,2017-12-16 01:22:00,
2017-12-15 20:25:00,55.0,41.8,30.05,WSW,250,3.5,3.5,61,0.00,BKN,,0.00,WeatherDisplay:10.37,2017-12-16 01:25:00,
2017-12-15 20:30:00,55.0,41.8,30.05,WSW,250,2.3,0.0,61,0.00,BKN,,0.00,WeatherDisplay:10.37,2017-12-16 01:30:00,
2017-12-15 20:36:00,54.9,41.7,30.05,WSW,257,0.0,0.0,61,0.00,BKN,,0.00,WeatherDisplay:10.37,2017-12-16 01:36:00,
2017-12-15 20:41:00,54.8,41.6,30.05,WSW,257,1.2,0.0,61,0.00,BKN,,0.00,WeatherDisplay:10.37,2017-12-16 01:41:00,
2017-12-15 20:46:00,54.7,41.5,30.05,WSW,238,1.2,1.2,61,0.00,BKN,,0.00,WeatherDisplay:10.37,2017-12-16 01:46:00,
2017-12-15 20:51:00,54.6,41.8,30.05,WSW,239,0.0,0.0,62,0.00,BKN,,0.00,WeatherDisplay:10.37,2017-12-16 01:51:00,
2017-12-15 20:52:00,54.6,41.4,30.05,WSW,247,4.0,4.0,61,0.00,BKN,,0.00,WeatherDisplay:10.37,2017-12-16 01:52:00,
2017-12-15 20:57:00,54.5,41.3,30.05,WSW,246,0.0,0.0,61,0.00,BKN,,0.00,WeatherDisplay:10.37,2017-12-16 01:57:00,
2017-12-15 21:02:00,54.4,41.6,30.06,WSW,251,1.2,0.0,62,0.00,OVC,,0.00,WeatherDisplay:10.37,2017-12-16 02:02:00,
2017-12-15 21:03:00,54.5,41.7,30.07,WSW,252,0.0,0.0,62,0.00,OVC,,0.00,WeatherDisplay:10.37,2017-12-16 02:03:00,
2017-12-15 21:07:00,54.4,41.6,30.07,WSW,251,0.0,0.0,62,0.00,OVC,,0.00,WeatherDisplay:10.37,2017-12-16 02:07:00,
2017-12-15 21:13:00,54.3,41.6,30.07,WSW,251,0.0,0.0,62,0.00,OVC,,0.00,WeatherDisplay:10.37,2017-12-16 02:13:00,
2017-12-15 21:14:00,54.2,41.5,30.07,WSW,251,0.0,0.0,62,0.00,OVC,,0.00,WeatherDisplay:10.37,2017-12-16 02:14:00,
2017-12-15 21:19:00,54.1,40.9,30.07,WSW,248,0.0,0.0,61,0.00,OVC,,0.00,WeatherDisplay:10.37,2017-12-16 02:19:00,
2017-12-15 21:24:00,54.1,41.4,30.07,WSW,248,0.0,0.0,62,0.00,OVC,,0.00,WeatherDisplay:10.37,2017-12-16 02:24:00,
2017-12-15 21:29:00,54.0,41.3,30.07,WSW,248,2.3,0.0,62,0.00,OVC,,0.00,WeatherDisplay:10.37,2017-12-16 02:29:00,
2017-12-15 21:30:00,54.0,41.3,30.07,WSW,248,0.0,0.0,62,0.00,OVC,,0.00,WeatherDisplay:10.37,2017-12-16 02:30:00,
2017-12-15 21:35:00,53.9,41.2,30.07,WSW,248,0.0,0.0,62,0.00,OVC,,0.00,WeatherDisplay:10.37,2017-12-16 02:35:00,
2017-12-15 21:40:00,53.7,41.4,30.07,WSW,248,0.0,0.0,63,0.00,OVC,,0.00,WeatherDisplay:10.37,2017-12-16 02:40:00,
2017-12-15 21:43:00,53.7,41.0,30.07,WSW,248,2.0,2.0,62,0.00,OVC,,0.00,WeatherDisplay:10.37,2017-12-16 02:43:00,
2017-12-15 21:49:00,53.5,41.2,30.08,WSW,248,0.0,0.0,63,0.00,OVC,,0.00,WeatherDisplay:10.37,2017-12-16 02:49:00,